Terminal Aerodrome Forecast
Issued by NWS Newport/Morehead City, NC

Home | Current Version | Previous Version | Graphics & Text | Print | Product List | Glossary On
Versions: 1 2 3 4 5 6 7 8 9 10 11 12 13 14
000
FTUS42 KMHX 152300
TAFEWN
TAF
KEWN 152323Z 1600/1624 VRB03KT P6SM SCT250
     FM160800 00000KT 3SM BR OVC015
     FM161300 21006KT P6SM SCT040
     FM161900 22008KT P6SM VCSH BKN040=

USA.gov is the U.S. government's official web portal to all federal, state and local government web resources and services.